ADDS METAR Data INFO
IDs: Format: Raw Decoded Include TAF

Data at: 1810 UTC 14 Aug 2018

PANV 141756Z AUTO 31004KT 2SM -RA BR SCT004 SCT010 OVC029 11/11 A2962 RMK AO2 SLP052 P0001 60001 T01110111 10117 20106 53009
PANV 141656Z AUTO 26004KT 10SM -RA BKN016 OVC027 12/11 A2961 RMK AO2 RAE1558B47 SLP048 P0000 T01170111
PANV 141553Z AUTO 27004KT 10SM -RA SCT038 OVC070 11/11 A2960 RMK AO2 RAB02E12B41 P0000
PANV 141545Z AUTO 25003KT 1 1/4SM -RA BR BKN070 11/11 A2959 RMK AO2 RAB02E12B41 P0000
PANV 141532Z AUTO 25003KT 3/4SM BR FEW001 OVC070 11/11 A2959 RMK AO2 RAB02E12 P0000
PANV 141456Z AUTO 00000KT 10SM SCT001 BKN120 11/11 A2959 RMK AO2 SLP040 60000 T01060106 51006
PANV 140956Z AUTO 02004KT 10SM -RA OVC006 12/12 A2953 RMK AO2 SLP021 P0000 T01220122
PANV 140944Z AUTO 02005KT 10SM -RA OVC006 12/12 A2953 RMK AO2 CIG 003V008 P0000
PANV 140711Z AUTO 03005KT 10SM BKN002 BKN055 OVC070 13/12 A2948 RMK AO2
PANV 140610Z AUTO 03006KT 10SM BKN002 OVC060 13/12 A2947 RMK AO2
PANV 140315Z AUTO 08003KT 10SM SCT010 OVC080 14/12 A2942 RMK AO2
PANV 140027Z AUTO 10006KT 10SM FEW011 BKN039 OVC060 13/13 A2938 RMK AO2 RAE14 P0000
PANV 132331Z AUTO 08006KT 10SM BKN013 BKN024 OVC070 14/12 A2937 RMK AO2
PANV 132256Z AUTO 07005KT 10SM BKN009 BKN042 OVC049 14/12 A2936 RMK AO2 SLP964 T01440117
PANV 132156Z AUTO 11006KT 10SM FEW010 OVC070 14/12 A2935 RMK AO2 SLP959 T01390117
PANV 131943Z AUTO 13004KT 10SM BKN008 OVC011 12/12 A2931 RMK AO2 CIG 006V010
PANV 131422Z AUTO 11008KT 10SM OVC003 11/10 A2923 RMK AO2 RAE22 P0000
PANV 131356Z AUTO 11010KT 10SM -RA OVC005 11/10 A2923 RMK AO2 SLP918 P0001 T01060100
PANV 131156Z AUTO 09008KT 7SM -RA OVC005 11/10 A2922 RMK AO2 SLP914 P0002 60011 70057 T01060100 10111 20106 52001
PANV 130846Z AUTO 11008KT 10SM SCT006 OVC017 11/10 A2920 RMK AO2 RAE32 P0001
PANV 130739Z AUTO 11005KT 9SM -RA SCT006 BKN013 OVC017 11/11 A2919 RMK AO2 P0004
PANV 130725Z AUTO 12006KT 8SM -RA SCT006 OVC017 11/11 A2919 RMK AO2 P0003